Time;durP1;ratioP1;P1;durP2;ratioP2;P2;SDS_P1;SDS_P2;PMS_P1;PMS_P2;Temp;Humidity;BMP_temperature;BMP_pressure;BME280_temperature;BME280_humidity;BME280_pressure;Samples;Min_cycle;Max_cycle;Signal;HPM_P1;HPM_P2
2023/01/08 00:01:04;;;;;;;2.75;2.05;;;;;;;9.27;100.00;97867.66;4171293;28;20235;-49
2023/01/08 00:03:06;;;;;;;1.95;1.85;;;;;;;9.33;100.00;97864.72;4174230;28;20254;-50
2023/01/08 00:05:10;;;;;;;2.20;2.00;;;;;;;9.30;100.00;97858.97;4185346;28;20304;-51
2023/01/08 00:07:12;;;;;;;2.28;2.17;;;;;;;9.29;100.00;97852.66;4175797;28;20220;-51
2023/01/08 00:09:13;;;;;;;1.98;1.85;;;;;;;9.30;100.00;97853.50;4185186;28;20251;-51
2023/01/08 00:11:16;;;;;;;2.40;2.20;;;;;;;9.31;100.00;97844.22;4171705;28;20263;-53
2023/01/08 00:13:17;;;;;;;1.98;1.70;;;;;;;9.36;100.00;97845.09;4174427;28;20731;-51
2023/01/08 00:15:19;;;;;;;2.85;2.55;;;;;;;9.31;100.00;97836.88;4172859;28;20212;-50
2023/01/08 00:17:21;;;;;;;2.20;2.00;;;;;;;9.35;100.00;97840.72;4164106;28;20304;-50
2023/01/08 00:19:22;;;;;;;1.70;1.42;;;;;;;9.35;100.00;97845.38;4175188;28;20680;-49
2023/01/08 00:21:24;;;;;;;2.55;2.35;;;;;;;9.38;100.00;97839.38;4170778;28;20695;-51
2023/01/08 00:23:26;;;;;;;2.28;2.08;;;;;;;9.42;100.00;97837.78;4150937;28;20287;-51
2023/01/08 00:25:28;;;;;;;2.17;2.08;;;;;;;9.42;100.00;97837.78;4170559;28;20952;-49
2023/01/08 00:27:29;;;;;;;2.38;2.17;;;;;;;9.44;100.00;97838.34;4169581;28;20227;-50
2023/01/08 00:29:31;;;;;;;2.28;2.10;;;;;;;9.44;100.00;97843.81;4184254;28;20218;-50
2023/01/08 00:31:33;;;;;;;1.95;1.83;;;;;;;9.46;100.00;97842.47;4175035;28;20227;-51
2023/01/08 00:33:35;;;;;;;4.30;2.13;;;;;;;9.45;100.00;97835.38;4170619;28;20346;-49
2023/01/08 00:35:40;;;;;;;1.95;1.70;;;;;;;9.50;100.00;97848.22;4167485;28;20208;-50
2023/01/08 00:37:42;;;;;;;2.67;2.42;;;;;;;9.51;100.00;97844.41;4172228;28;20658;-50
2023/01/08 00:39:44;;;;;;;1.67;1.58;;;;;;;9.49;100.00;97841.94;4155225;28;20296;-50
2023/01/08 00:41:45;;;;;;;2.28;2.08;;;;;;;9.48;100.00;97834.03;4166599;28;20309;-50
2023/01/08 00:43:47;;;;;;;1.73;1.63;;;;;;;9.52;100.00;97835.13;4170836;28;20730;-51
2023/01/08 00:45:52;;;;;;;2.03;1.80;;;;;;;9.56;100.00;97839.00;4173103;28;20208;-52
2023/01/08 00:47:54;;;;;;;2.65;2.45;;;;;;;9.57;100.00;97837.91;4183412;28;20257;-49
2023/01/08 00:49:56;;;;;;;2.40;2.20;;;;;;;9.57;100.00;97832.44;4168797;28;20236;-52
2023/01/08 00:51:57;;;;;;;2.22;2.10;;;;;;;9.54;100.00;97835.72;4171296;28;20721;-50
2023/01/08 00:53:59;;;;;;;2.00;1.90;;;;;;;9.50;100.00;97838.16;4170931;28;20732;-52
2023/01/08 00:56:03;;;;;;;2.50;1.83;;;;;;;9.48;100.00;97828.56;4169198;28;20647;-50
2023/01/08 00:58:04;;;;;;;3.72;3.42;;;;;;;9.49;100.00;97833.75;4170665;28;20243;-51
2023/01/08 01:00:08;;;;;;;5.20;4.00;;;;;;;9.50;100.00;97826.38;4168185;28;20263;-53
2023/01/08 01:02:10;;;;;;;6.97;5.35;;;;;;;9.49;100.00;97824.75;4168563;28;20969;-54
2023/01/08 01:04:13;;;;;;;7.40;5.47;;;;;;;9.45;100.00;97824.44;4166368;28;20212;-52
2023/01/08 01:06:15;;;;;;;2.88;2.53;;;;;;;9.44;100.00;97827.41;4183367;28;20212;-50
2023/01/08 01:08:17;;;;;;;2.45;2.25;;;;;;;9.50;100.00;97831.84;4153518;28;20303;-51
2023/01/08 01:10:18;;;;;;;2.55;2.40;;;;;;;9.48;100.00;97829.38;4181722;28;20235;-51
2023/01/08 01:12:23;;;;;;;2.10;1.90;;;;;;;9.45;100.00;97823.59;4157729;28;20212;-51
2023/01/08 01:14:24;;;;;;;2.00;1.90;;;;;;;9.47;100.00;97824.16;4171030;28;20693;-51
2023/01/08 01:16:28;;;;;;;2.60;2.40;;;;;;;9.46;100.00;97819.78;4170750;28;20208;-51
2023/01/08 01:18:30;;;;;;;3.75;2.53;;;;;;;9.38;100.00;97812.06;4170810;28;20270;-51
2023/01/08 01:20:32;;;;;;;2.28;2.13;;;;;;;9.40;100.00;97820.81;4170449;28;20741;-50
2023/01/08 01:22:34;;;;;;;2.40;2.20;;;;;;;9.47;100.00;97818.69;4171926;28;20835;-51
2023/01/08 01:24:36;;;;;;;3.45;2.60;;;;;;;9.45;100.00;97815.41;4170960;28;20308;-52
2023/01/08 01:26:38;;;;;;;4.30;3.70;;;;;;;9.41;100.00;97817.03;4173902;28;20679;-53
2023/01/08 01:28:40;;;;;;;3.30;2.80;;;;;;;9.40;100.00;97820.81;4170979;28;20315;-53
2023/01/08 01:30:41;;;;;;;4.63;2.88;;;;;;;9.37;100.00;97818.63;4170083;28;20224;-52
2023/01/08 01:32:43;;;;;;;1.90;1.80;;;;;;;9.43;100.00;97825.78;4169975;28;20204;-52
2023/01/08 01:34:45;;;;;;;2.50;2.30;;;;;;;9.37;100.00;97824.91;4172482;28;20213;-51
2023/01/08 01:36:46;;;;;;;2.45;2.25;;;;;;;9.37;100.00;97827.66;4169369;28;20643;-51
2023/01/08 01:38:50;;;;;;;2.28;2.10;;;;;;;9.34;100.00;97833.59;4172233;28;20330;-53
2023/01/08 01:40:52;;;;;;;2.22;2.05;;;;;;;9.37;100.00;97838.56;4171456;28;20240;-54
2023/01/08 01:42:53;;;;;;;2.75;2.55;;;;;;;9.34;100.00;97835.53;4171174;28;20298;-51
2023/01/08 01:44:55;;;;;;;2.13;2.03;;;;;;;9.36;100.00;97841.56;4170011;28;20239;-54
2023/01/08 01:46:57;;;;;;;2.75;2.55;;;;;;;9.34;100.00;97835.53;4182680;28;20298;-50
2023/01/08 01:49:06;;;;;;;2.92;1.75;;;;;;;9.26;100.00;97825.91;4168582;28;20208;-52
2023/01/08 01:51:07;;;;;;;2.33;2.15;;;;;;;9.21;100.00;97817.66;4166811;28;20223;-52
2023/01/08 01:53:20;;;;;;;1.90;1.80;;;;;;;9.24;100.00;97819.03;4151951;28;21472;-52
2023/01/08 01:55:22;;;;;;;2.35;1.98;;;;;;;9.18;100.00;97818.19;4166988;28;20231;-50
2023/01/08 01:57:23;;;;;;;2.17;2.08;;;;;;;9.18;100.00;97817.34;4167402;28;21220;-51
2023/01/08 01:59:25;;;;;;;2.40;2.25;;;;;;;9.24;100.00;97816.31;4169089;28;20714;-52
2023/01/08 02:01:27;;;;;;;2.13;2.00;;;;;;;9.15;100.00;97820.59;4168874;28;20228;-50
2023/01/08 02:03:33;;;;;;;2.25;2.15;;;;;;;9.23;100.00;97815.47;4181086;28;20242;-50
2023/01/08 02:05:54;;;;;;;2.50;2.30;;;;;;;9.15;100.00;97812.41;4171021;28;20204;-51
2023/01/08 02:08:06;;;;;;;3.40;2.50;;;;;;;9.12;100.00;97802.00;4185696;28;20253;-51
2023/01/08 02:10:42;;;;;;;1.98;1.88;;;;;;;9.11;100.00;97800.34;4173595;28;20342;-50
2023/01/08 02:12:47;;;;;;;9.20;2.58;;;;;;;9.13;100.00;97804.47;4167559;28;20799;-55
2023/01/08 02:15:13;;;;;;;2.70;2.45;;;;;;;9.10;100.00;97806.91;4169543;28;20750;-50
2023/01/08 02:17:16;;;;;;;3.00;2.53;;;;;;;9.12;100.00;97797.38;4184193;28;20588;-50
2023/01/08 02:19:49;;;;;;;2.05;1.85;;;;;;;9.08;100.00;97800.88;4173990;28;20204;-51
2023/01/08 02:22:01;;;;;;;2.40;2.20;;;;;;;9.04;100.00;97789.66;4154325;28;20310;-51
2023/01/08 02:24:14;;;;;;;3.58;2.15;;;;;;;9.07;100.00;97785.56;4183094;28;20219;-50
2023/01/08 02:26:19;;;;;;;2.05;1.85;;;;;;;9.01;100.00;97781.16;4184344;28;20244;-49
2023/01/08 02:28:21;;;;;;;3.08;1.95;;;;;;;8.99;100.00;97780.59;4181967;28;20231;-50
2023/01/08 02:30:24;;;;;;;1.98;1.77;;;;;;;8.98;100.00;97778.94;4170452;28;20363;-49
2023/01/08 02:32:26;;;;;;;2.70;2.50;;;;;;;9.01;100.00;97778.44;4179977;28;20238;-51
2023/01/08 02:34:30;;;;;;;2.85;2.53;;;;;;;8.99;100.00;97769.66;4168172;28;20240;-52
2023/01/08 02:36:52;;;;;;;1.73;1.63;;;;;;;9.07;100.00;97763.72;4167496;28;20232;-49
2023/01/08 02:39:01;;;;;;;2.35;2.15;;;;;;;9.07;100.00;97766.47;4183198;28;20685;-50
2023/01/08 02:41:05;;;;;;;1.90;1.80;;;;;;;9.02;100.00;97761.00;4180557;28;20327;-49
2023/01/08 02:43:14;;;;;;;2.10;1.83;;;;;;;9.03;100.00;97757.16;4168082;28;20282;-51
2023/01/08 02:45:40;;;;;;;3.95;1.92;;;;;;;8.98;100.00;97752.50;4182772;28;20235;-51
2023/01/08 02:47:52;;;;;;;2.00;1.85;;;;;;;8.99;100.00;97751.41;4181967;28;20587;-51
2023/01/08 02:50:04;;;;;;;2.25;2.05;;;;;;;9.02;100.00;97748.16;4167402;28;20214;-51
2023/01/08 02:52:07;;;;;;;7.85;2.13;;;;;;;9.00;100.00;97741.28;4166031;28;20200;-51
2023/01/08 02:54:12;;;;;;;2.33;2.13;;;;;;;8.98;100.00;97740.75;4168992;28;20281;-49
2023/01/08 02:56:17;;;;;;;2.72;2.45;;;;;;;9.03;100.00;97738.06;4167876;28;20619;-49
2023/01/08 02:58:20;;;;;;;3.20;2.92;;;;;;;9.03;100.00;97738.06;4173963;28;20282;-51
2023/01/08 03:00:22;;;;;;;2.55;2.35;;;;;;;9.01;100.00;97738.31;4170111;28;20334;-48
2023/01/08 03:02:26;;;;;;;2.70;2.40;;;;;;;9.06;100.00;97732.09;4166768;28;20745;-49
2023/01/08 03:04:30;;;;;;;3.08;2.85;;;;;;;8.99;100.00;97720.56;4182958;28;20669;-50
2023/01/08 03:06:32;;;;;;;2.10;1.90;;;;;;;8.99;100.00;97724.13;4171581;28;20218;-50
2023/01/08 03:08:37;;;;;;;2.03;1.90;;;;;;;8.95;100.00;97720.25;4169785;28;20334;-49
2023/01/08 03:10:41;;;;;;;2.83;2.55;;;;;;;8.93;100.00;97719.69;4170873;28;20223;-49
2023/01/08 03:13:00;;;;;;;2.38;2.20;;;;;;;8.94;100.00;97720.53;4155451;28;20212;-51
2023/01/08 03:15:09;;;;;;;2.40;2.20;;;;;;;8.91;100.00;97712.84;4171161;28;20650;-50
2023/01/08 03:17:20;;;;;;;2.53;2.33;;;;;;;8.89;100.00;97709.56;4171423;28;20207;-52
2023/01/08 03:19:29;;;;;;;3.25;2.95;;;;;;;8.90;100.00;97700.31;4173120;28;20212;-49
2023/01/08 03:21:31;;;;;;;2.20;2.00;;;;;;;8.90;100.00;97705.75;4156753;28;20259;-48
2023/01/08 03:23:35;;;;;;;2.22;2.03;;;;;;;8.91;100.00;97701.94;4171740;28;20219;-50
2023/01/08 03:25:39;;;;;;;2.75;2.50;;;;;;;8.91;100.00;97704.66;4171841;28;20247;-48
2023/01/08 03:27:44;;;;;;;1.95;1.85;;;;;;;8.90;100.00;97708.47;4167168;28;20269;-48
2023/01/08 03:29:48;;;;;;;4.40;2.10;;;;;;;8.87;100.00;97700.81;4170529;28;20319;-49
2023/01/08 03:31:52;;;;;;;2.50;2.30;;;;;;;8.85;100.00;97692.91;4171010;28;21884;-50
2023/01/08 03:33:55;;;;;;;3.10;2.67;;;;;;;8.90;100.00;97692.91;4172561;28;20628;-50
2023/01/08 03:35:59;;;;;;;2.88;2.67;;;;;;;8.89;100.00;97688.56;4170299;28;20266;-49
2023/01/08 03:38:10;;;;;;;2.85;2.42;;;;;;;8.87;100.00;97684.44;4172388;28;20196;-49
2023/01/08 03:40:17;;;;;;;2.35;2.15;;;;;;;8.86;100.00;97688.25;4170944;28;20351;-49
2023/01/08 03:42:19;;;;;;;2.42;2.33;;;;;;;8.87;100.00;97685.28;4165691;28;20258;-49
2023/01/08 03:44:21;;;;;;;2.42;2.22;;;;;;;8.85;100.00;97682.00;4183652;28;20245;-49
2023/01/08 03:46:29;;;;;;;2.63;2.42;;;;;;;8.89;100.00;97676.84;4169036;28;20243;-48
2023/01/08 03:48:32;;;;;;;1.88;1.77;;;;;;;8.88;100.00;97680.66;4172354;28;20259;-49
2023/01/08 03:50:34;;;;;;;2.20;2.10;;;;;;;8.89;100.00;97682.28;4186026;28;20663;-49
2023/01/08 03:52:35;;;;;;;3.20;2.15;;;;;;;8.89;100.00;97687.75;4169627;28;20222;-49
2023/01/08 03:54:40;;;;;;;2.38;2.17;;;;;;;8.97;100.00;97681.81;4174675;28;20242;-48
2023/01/08 03:56:42;;;;;;;3.72;1.98;;;;;;;8.92;100.00;97687.22;4170460;28;20279;-49
2023/01/08 03:58:44;;;;;;;2.45;2.25;;;;;;;8.93;100.00;97688.84;4172969;28;20228;-49
2023/01/08 04:00:45;;;;;;;2.50;2.30;;;;;;;8.91;100.00;97677.38;4172092;28;20709;-49
2023/01/08 04:02:47;;;;;;;1.95;1.80;;;;;;;8.85;100.00;97676.53;4174609;28;21136;-49
2023/01/08 04:04:49;;;;;;;2.47;2.10;;;;;;;8.89;100.00;97671.38;4172656;28;20303;-49
2023/01/08 04:06:51;;;;;;;1.92;1.83;;;;;;;8.88;100.00;97670.53;4155057;28;20213;-49
2023/01/08 04:08:53;;;;;;;2.17;2.03;;;;;;;8.94;100.00;97671.44;4188520;28;20311;-49
2023/01/08 04:10:55;;;;;;;1.83;1.73;;;;;;;8.91;100.00;97675.50;4173715;28;20256;-48
2023/01/08 04:12:56;;;;;;;2.00;1.83;;;;;;;8.94;100.00;97672.22;4172986;28;20208;-49
2023/01/08 04:14:58;;;;;;;1.88;1.77;;;;;;;8.85;100.00;97670.25;4173980;28;20204;-49
2023/01/08 04:17:00;;;;;;;1.63;1.52;;;;;;;8.82;100.00;97666.13;4172451;28;20220;-49
2023/01/08 04:19:02;;;;;;;1.67;1.58;;;;;;;8.82;100.00;97676.22;4156835;28;20239;-49
2023/01/08 04:21:04;;;;;;;1.63;1.52;;;;;;;8.84;100.00;97679.50;4172160;28;20323;-49
2023/01/08 04:23:06;;;;;;;1.52;1.40;;;;;;;8.85;100.00;97681.16;4169128;28;20243;-49
2023/01/08 04:25:08;;;;;;;2.17;1.70;;;;;;;8.82;100.00;97684.41;4172442;28;20295;-48
2023/01/08 04:27:09;;;;;;;1.30;1.20;;;;;;;8.85;100.00;97686.59;4169832;28;20230;-49
2023/01/08 04:29:13;;;;;;;1.38;1.30;;;;;;;8.82;100.00;97677.03;4173876;28;20284;-49
2023/01/08 04:31:14;;;;;;;1.73;1.52;;;;;;;8.78;100.00;97680.53;4174827;28;20244;-49
2023/01/08 04:33:16;;;;;;;2.08;1.58;;;;;;;8.78;100.00;97680.53;4171286;28;20201;-49
2023/01/08 04:35:18;;;;;;;1.60;1.50;;;;;;;8.74;100.00;97680.25;4171978;28;20839;-49
2023/01/08 04:37:20;;;;;;;1.52;1.42;;;;;;;8.77;100.00;97684.34;4169659;28;20302;-49
2023/01/08 04:39:21;;;;;;;1.30;1.20;;;;;;;8.73;100.00;97673.16;4169113;28;20209;-49
2023/01/08 04:41:23;;;;;;;1.52;1.30;;;;;;;8.72;100.00;97673.41;4170189;28;20789;-49
2023/01/08 04:43:25;;;;;;;1.63;1.52;;;;;;;8.67;100.00;97667.88;4153657;28;20654;-49
2023/01/08 04:45:27;;;;;;;1.20;1.15;;;;;;;8.73;100.00;97664.97;4169930;28;20215;-49
2023/01/08 04:47:29;;;;;;;1.65;1.55;;;;;;;8.72;100.00;97668.78;4170174;28;20230;-49
2023/01/08 04:49:30;;;;;;;1.35;1.30;;;;;;;8.73;100.00;97666.84;4172125;28;20255;-50
2023/01/08 04:51:32;;;;;;;1.33;1.23;;;;;;;8.68;100.00;97670.38;4173742;28;20232;-50
2023/01/08 04:53:36;;;;;;;1.10;1.10;;;;;;;8.65;100.00;97659.97;4171718;28;20215;-49
2023/01/08 04:55:38;;;;;;;47.65;4.60;;;;;;;8.67;100.00;97671.44;4186260;28;20211;-50
2023/01/08 04:57:40;;;;;;;1.40;1.30;;;;;;;8.67;100.00;97678.78;4155305;28;20257;-49
2023/01/08 04:59:42;;;;;;;1.17;1.17;;;;;;;8.67;100.00;97673.34;4173838;28;20816;-49
2023/01/08 05:01:43;;;;;;;2.67;1.35;;;;;;;8.67;100.00;97667.88;4174519;28;20734;-49
2023/01/08 05:03:46;;;;;;;1.75;1.17;;;;;;;8.67;100.00;97657.81;4170017;28;20659;-49
2023/01/08 05:05:47;;;;;;;1.42;1.33;;;;;;;8.66;100.00;97660.78;4169589;28;20851;-49
2023/01/08 05:07:50;;;;;;;1.83;1.73;;;;;;;8.65;100.00;97664.59;4156235;28;20224;-49
2023/01/08 05:09:52;;;;;;;1.65;1.55;;;;;;;8.71;100.00;97660.84;4169066;28;20674;-49
2023/01/08 05:11:53;;;;;;;1.05;1.05;;;;;;;8.68;100.00;97661.38;4186624;28;20218;-49
2023/01/08 05:13:55;;;;;;;1.42;1.33;;;;;;;8.64;100.00;97669.25;4169203;28;20232;-50
2023/01/08 05:15:59;;;;;;;1.00;1.00;;;;;;;8.59;100.00;97665.63;4172748;28;20238;-49
2023/01/08 05:18:03;;;;;;;1.10;1.10;;;;;;;8.64;100.00;97652.88;4166841;28;20209;-49
2023/01/08 05:20:05;;;;;;;1.25;1.25;;;;;;;8.55;100.00;97661.78;4170219;28;20673;-49
2023/01/08 05:22:07;;;;;;;1.23;1.20;;;;;;;8.59;100.00;97646.53;4168089;28;20215;-50
2023/01/08 05:24:09;;;;;;;1.20;1.10;;;;;;;8.55;100.00;97656.34;4169010;28;20666;-49
2023/01/08 05:26:11;;;;;;;1.42;1.33;;;;;;;8.48;100.00;97655.72;4172591;28;20381;-49
2023/01/08 05:28:12;;;;;;;1.00;1.00;;;;;;;8.49;100.00;97660.91;4170433;28;20336;-49
2023/01/08 05:30:14;;;;;;;1.33;1.13;;;;;;;8.49;100.00;97666.34;4183340;28;20270;-50
2023/01/08 05:32:17;;;;;;;1.27;1.08;;;;;;;8.47;100.00;97660.34;4164848;28;20661;-49
2023/01/08 05:34:19;;;;;;;0.93;0.93;;;;;;;8.50;100.00;97662.53;4170774;28;20216;-50
2023/01/08 05:36:21;;;;;;;0.77;0.77;;;;;;;8.48;100.00;97653.00;4171217;28;20247;-51
2023/01/08 05:38:22;;;;;;;1.52;0.88;;;;;;;8.55;100.00;97645.44;4170710;28;20613;-49
2023/01/08 05:40:24;;;;;;;1.85;1.08;;;;;;;8.50;100.00;97645.38;4173182;28;20740;-49
2023/01/08 05:42:26;;;;;;;0.93;0.90;;;;;;;8.44;100.00;97651.84;4152827;28;20213;-49
2023/01/08 05:44:28;;;;;;;0.88;0.88;;;;;;;8.40;100.00;97648.00;4167888;28;20283;-49
2023/01/08 05:46:29;;;;;;;0.93;0.93;;;;;;;8.37;100.00;97649.34;4170771;28;20301;-49
2023/01/08 05:48:33;;;;;;;0.90;0.90;;;;;;;8.31;100.00;97635.91;4171786;28;20286;-49
2023/01/08 05:50:35;;;;;;;1.00;1.00;;;;;;;8.39;100.00;97635.44;4171497;28;20701;-49
2023/01/08 05:52:36;;;;;;;1.00;1.00;;;;;;;8.34;100.00;97633.50;4170048;28;20239;-49
2023/01/08 05:54:38;;;;;;;0.98;0.98;;;;;;;8.36;100.00;97634.06;4154323;28;20213;-51
2023/01/08 05:56:42;;;;;;;0.82;0.82;;;;;;;8.36;100.00;97638.69;4168917;28;20208;-49
2023/01/08 05:58:44;;;;;;;1.02;1.00;;;;;;;8.34;100.00;97640.88;4164882;28;20234;-49
2023/01/08 06:00:46;;;;;;;1.10;0.98;;;;;;;8.38;100.00;97642.81;4169285;28;20673;-50
2023/01/08 06:02:47;;;;;;;1.45;1.27;;;;;;;8.35;100.00;97647.97;4169149;28;20239;-49
2023/01/08 06:04:49;;;;;;;0.93;0.90;;;;;;;8.36;100.00;97644.97;4168191;28;20262;-49
2023/01/08 06:06:51;;;;;;;1.30;1.20;;;;;;;8.32;100.00;97646.56;4186608;28;20211;-49
2023/01/08 06:08:53;;;;;;;0.82;0.82;;;;;;;8.32;100.00;97643.84;4173723;28;20675;-49
2023/01/08 06:11:01;;;;;;;1.30;1.20;;;;;;;8.32;100.00;97637.56;4170296;28;20366;-49
2023/01/08 06:13:06;;;;;;;4.97;1.50;;;;;;;8.34;100.00;97640.88;4176352;28;20693;-49
2023/01/08 06:15:09;;;;;;;1.00;1.00;;;;;;;8.28;100.00;97639.16;4167464;28;20236;-49
2023/01/08 06:17:11;;;;;;;1.02;0.98;;;;;;;8.29;100.00;97643.53;4170792;28;20351;-50
2023/01/08 06:19:12;;;;;;;1.48;1.38;;;;;;;8.26;100.00;97652.22;4173755;28;20321;-50
2023/01/08 06:21:14;;;;;;;2.90;1.90;;;;;;;8.33;100.00;97644.66;4185566;28;20324;-49
2023/01/08 06:23:16;;;;;;;1.05;1.02;;;;;;;8.26;100.00;97644.03;4166989;28;20730;-50
2023/01/08 06:25:18;;;;;;;1.42;1.33;;;;;;;8.26;100.00;97650.31;4166451;28;20212;-49
2023/01/08 06:27:19;;;;;;;1.20;1.10;;;;;;;8.26;100.00;97638.59;4169113;28;20213;-49
2023/01/08 06:29:21;;;;;;;1.88;1.65;;;;;;;8.22;100.00;97643.72;4170958;28;20328;-49
2023/01/08 06:31:23;;;;;;;1.15;1.15;;;;;;;8.26;100.00;97654.94;4168243;28;20321;-49
2023/01/08 06:33:25;;;;;;;1.10;1.10;;;;;;;8.28;100.00;97652.78;4171379;28;20730;-49
2023/01/08 06:35:27;;;;;;;1.10;1.00;;;;;;;8.25;100.00;97651.41;4153428;28;20295;-49
2023/01/08 06:37:29;;;;;;;1.00;1.00;;;;;;;8.21;100.00;97646.72;4182383;28;20675;-49
2023/01/08 06:39:30;;;;;;;1.40;1.27;;;;;;;8.31;100.00;97652.28;4170870;28;20204;-50
2023/01/08 06:41:32;;;;;;;2.05;1.00;;;;;;;8.21;100.00;97654.91;4167083;28;20323;-50
2023/01/08 06:43:34;;;;;;;6.50;1.20;;;;;;;8.19;100.00;97654.28;4170347;28;20219;-49
2023/01/08 06:45:36;;;;;;;1.15;1.13;;;;;;;8.20;100.00;97653.22;4170971;28;20208;-49
2023/01/08 06:47:38;;;;;;;0.70;0.70;;;;;;;8.22;100.00;97660.06;4169736;28;20301;-48
2023/01/08 06:49:40;;;;;;;1.08;1.08;;;;;;;8.19;100.00;97659.72;4171166;28;20782;-49
2023/01/08 06:51:42;;;;;;;1.00;1.00;;;;;;;8.20;100.00;97655.97;4168861;28;20256;-49
2023/01/08 06:53:46;;;;;;;1.05;1.05;;;;;;;8.25;100.00;97659.59;4170650;28;20231;-49
2023/01/08 06:55:54;;;;;;;0.80;0.80;;;;;;;8.21;100.00;97661.16;4167120;28;20250;-49
2023/01/08 06:57:57;;;;;;;0.93;0.93;;;;;;;8.17;100.00;97656.44;4148948;28;20206;-49
2023/01/08 06:59:59;;;;;;;1.20;1.08;;;;;;;8.16;100.00;97654.81;4184055;28;20239;-49
2023/01/08 07:02:00;;;;;;;1.02;1.02;;;;;;;8.18;100.00;97658.94;4166873;28;20192;-49
2023/01/08 07:04:02;;;;;;;1.10;1.05;;;;;;;8.20;100.00;97667.69;4167322;28;20215;-49
2023/01/08 07:06:04;;;;;;;1.00;1.00;;;;;;;8.15;100.00;97661.34;4167338;28;20294;-49
2023/01/08 07:08:10;;;;;;;0.90;0.90;;;;;;;8.14;100.00;97662.38;4168802;28;20213;-49
2023/01/08 07:10:12;;;;;;;0.90;0.90;;;;;;;8.21;100.00;97671.25;4170576;28;20638;-49
2023/01/08 07:12:14;;;;;;;1.33;1.27;;;;;;;8.18;100.00;97666.25;4166875;28;20653;-48
2023/01/08 07:14:15;;;;;;;1.13;1.13;;;;;;;8.20;100.00;97664.13;4171822;28;20299;-49
2023/01/08 07:16:17;;;;;;;1.42;1.40;;;;;;;8.09;100.00;97659.63;4170273;28;20970;-49
2023/01/08 07:18:19;;;;;;;1.20;1.20;;;;;;;8.12;100.00;97670.00;4183646;28;20704;-48
2023/01/08 07:20:21;;;;;;;1.85;1.17;;;;;;;8.08;100.00;97663.44;4165342;28;20252;-49
2023/01/08 07:22:24;;;;;;;1.02;0.98;;;;;;;8.10;100.00;97672.16;4169720;28;20579;-50
2023/01/08 07:24:26;;;;;;;1.15;1.15;;;;;;;8.08;100.00;97674.34;4166754;28;20356;-48
2023/01/08 07:26:27;;;;;;;1.35;1.25;;;;;;;8.06;100.00;97660.13;4165348;28;20236;-49
2023/01/08 07:28:29;;;;;;;1.00;1.00;;;;;;;8.08;100.00;97668.88;4167215;28;20303;-49
2023/01/08 07:30:31;;;;;;;1.70;1.05;;;;;;;8.04;100.00;97662.28;4165697;28;20693;-49
2023/01/08 07:32:33;;;;;;;1.00;1.00;;;;;;;8.07;100.00;97668.06;4166378;28;20203;-48
2023/01/08 07:34:35;;;;;;;1.00;1.00;;;;;;;7.99;100.00;97664.94;4168142;28;20215;-48
2023/01/08 07:36:37;;;;;;;1.33;1.20;;;;;;;8.03;100.00;97663.38;4168609;28;20295;-49
2023/01/08 07:38:38;;;;;;;0.90;0.90;;;;;;;8.03;100.00;97677.81;4169722;28;20243;-49
2023/01/08 07:40:40;;;;;;;1.05;1.05;;;;;;;8.03;100.00;97687.88;4150931;28;20231;-49
2023/01/08 07:42:42;;;;;;;1.35;1.35;;;;;;;8.05;100.00;97681.13;4179329;28;20200;-49
2023/01/08 07:44:43;;;;;;;0.95;0.95;;;;;;;8.03;100.00;97687.88;4169288;28;20317;-49
2023/01/08 07:46:45;;;;;;;1.40;1.30;;;;;;;8.01;100.00;97679.16;4168458;28;20342;-49
2023/01/08 07:48:47;;;;;;;1.27;1.17;;;;;;;7.99;100.00;97684.84;4170186;28;20307;-49
2023/01/08 07:50:49;;;;;;;1.58;1.48;;;;;;;8.01;100.00;97671.78;4171901;28;20224;-50
2023/01/08 07:52:50;;;;;;;1.70;1.60;;;;;;;8.03;100.00;97672.34;4170327;28;20674;-49
2023/01/08 07:54:52;;;;;;;1.55;1.45;;;;;;;8.06;100.00;97680.03;4168041;28;20348;-50
2023/01/08 07:56:54;;;;;;;1.38;1.27;;;;;;;8.04;100.00;97667.75;4153586;28;20297;-49
2023/01/08 07:58:55;;;;;;;1.77;1.67;;;;;;;8.04;100.00;97673.19;4169025;28;20291;-50
2023/01/08 08:00:58;;;;;;;1.52;1.42;;;;;;;8.05;100.00;97675.66;4170179;28;20251;-49
2023/01/08 08:03:07;;;;;;;1.40;1.30;;;;;;;8.01;100.00;97668.25;4169164;28;20204;-49
2023/01/08 08:05:09;;;;;;;1.40;1.30;;;;;;;8.04;100.00;97673.19;4168314;28;20203;-49
2023/01/08 08:07:11;;;;;;;2.30;2.20;;;;;;;8.00;100.00;97674.75;4168759;28;20710;-49
2023/01/08 08:09:13;;;;;;;1.42;1.33;;;;;;;8.02;100.00;97681.59;4185865;28;20310;-49
2023/01/08 08:11:14;;;;;;;1.17;1.17;;;;;;;8.00;100.00;97677.47;4171480;28;20253;-50
2023/01/08 08:13:16;;;;;;;1.35;1.17;;;;;;;8.13;100.00;97671.66;4172304;28;20301;-49
2023/01/08 08:15:18;;;;;;;1.27;1.17;;;;;;;8.06;100.00;97668.31;4174171;28;20213;-51
2023/01/08 08:17:20;;;;;;;1.30;1.20;;;;;;;8.07;100.00;97672.66;4174705;28;20208;-50
2023/01/08 08:19:21;;;;;;;1.38;1.27;;;;;;;8.12;100.00;97670.00;4181832;28;20741;-49
2023/01/08 08:21:24;;;;;;;1.40;1.30;;;;;;;8.10;100.00;97664.00;4170144;28;20259;-49
2023/01/08 08:23:25;;;;;;;0.80;0.80;;;;;;;8.09;100.00;97665.88;4170019;28;20244;-49
2023/01/08 08:25:28;;;;;;;0.73;0.73;;;;;;;8.11;100.00;97658.31;4170926;28;20204;-50
2023/01/08 08:27:30;;;;;;;1.15;1.15;;;;;;;8.12;100.00;97659.94;4176034;28;20200;-50
2023/01/08 08:29:32;;;;;;;1.02;1.02;;;;;;;8.15;100.00;97655.88;4173814;28;20323;-49
2023/01/08 08:31:34;;;;;;;1.20;1.10;;;;;;;8.15;100.00;97664.88;4186131;28;20258;-49
2023/01/08 08:33:35;;;;;;;0.88;0.88;;;;;;;8.09;100.00;97663.16;4183751;28;20212;-49
2023/01/08 08:35:37;;;;;;;0.95;0.95;;;;;;;8.09;100.00;97654.19;4170652;28;20238;-51
2023/01/08 08:37:39;;;;;;;1.13;1.02;;;;;;;8.18;100.00;97658.09;4170426;28;20204;-49
2023/01/08 08:39:41;;;;;;;2.10;2.00;;;;;;;8.15;100.00;97658.63;4169768;28;20246;-50
2023/01/08 08:41:42;;;;;;;1.88;1.75;;;;;;;8.15;100.00;97653.16;4168988;28;20259;-49
2023/01/08 08:43:44;;;;;;;1.45;1.30;;;;;;;8.13;100.00;97652.56;4172136;28;20701;-49
2023/01/08 08:45:46;;;;;;;2.08;1.88;;;;;;;8.14;100.00;97651.50;4169074;28;20299;-49
2023/01/08 08:47:48;;;;;;;1.58;1.48;;;;;;;8.08;100.00;97652.53;4171161;28;20648;-50
2023/01/08 08:49:49;;;;;;;2.00;1.83;;;;;;;8.15;100.00;97647.72;4170432;28;20242;-50
2023/01/08 08:51:52;;;;;;;1.33;1.23;;;;;;;8.15;100.00;97656.69;4170000;28;20221;-50
2023/01/08 08:53:53;;;;;;;2.13;2.03;;;;;;;8.15;100.00;97659.41;4185886;28;20235;-50
2023/01/08 08:55:57;;;;;;;1.10;1.10;;;;;;;8.19;100.00;97657.00;4166885;28;20208;-49
2023/01/08 08:58:10;;;;;;;1.20;1.20;;;;;;;8.23;100.00;97653.53;4168592;28;20208;-49
2023/01/08 09:00:13;;;;;;;1.00;1.00;;;;;;;8.23;100.00;97650.00;4170324;28;23183;-49
2023/01/08 09:02:15;;;;;;;1.83;1.25;;;;;;;8.22;100.00;97648.38;4166465;28;20296;-50
2023/01/08 09:04:17;;;;;;;1.13;1.10;;;;;;;8.22;100.00;97659.28;4170948;28;20219;-50
2023/01/08 09:06:19;;;;;;;1.85;0.95;;;;;;;8.23;100.00;97661.72;4169693;28;20677;-49
2023/01/08 09:08:20;;;;;;;1.30;1.23;;;;;;;8.25;100.00;97658.75;4168267;28;20231;-49
2023/01/08 09:10:22;;;;;;;1.00;1.00;;;;;;;8.27;100.00;97656.56;4171485;28;20259;-50
2023/01/08 09:12:24;;;;;;;1.02;1.02;;;;;;;8.33;100.00;97645.50;4183734;28;20275;-50
2023/01/08 09:14:26;;;;;;;2.33;1.20;;;;;;;8.29;100.00;97654.44;4181966;28;20897;-49
2023/01/08 09:16:28;;;;;;;0.98;0.98;;;;;;;8.27;100.00;97640.22;4169882;28;20686;-50
2023/01/08 09:18:29;;;;;;;1.08;1.08;;;;;;;8.30;100.00;97635.09;4171866;28;20206;-49
2023/01/08 09:20:31;;;;;;;1.10;1.00;;;;;;;8.28;100.00;97642.69;4171720;28;20227;-49
2023/01/08 09:22:33;;;;;;;0.73;0.73;;;;;;;8.29;100.00;97644.34;4171592;28;20239;-49
2023/01/08 09:24:35;;;;;;;0.82;0.82;;;;;;;8.36;100.00;97644.16;4168663;28;20222;-49
2023/01/08 09:26:37;;;;;;;1.00;1.00;;;;;;;8.35;100.00;97643.31;4164933;28;20219;-49
2023/01/08 09:28:38;;;;;;;1.63;1.52;;;;;;;8.35;100.00;97643.31;4166881;28;20877;-50
2023/01/08 09:30:40;;;;;;;0.82;0.82;;;;;;;8.38;100.00;97637.38;4150098;28;20379;-49
2023/01/08 09:32:43;;;;;;;0.90;0.90;;;;;;;8.42;100.00;97632.22;4167395;28;20883;-49
2023/01/08 09:34:45;;;;;;;0.98;0.98;;;;;;;8.37;100.00;97638.47;4156461;28;20727;-49
2023/01/08 09:36:46;;;;;;;1.38;1.27;;;;;;;8.39;100.00;97643.63;4182796;28;20275;-49
2023/01/08 09:38:48;;;;;;;0.80;0.80;;;;;;;8.41;100.00;97641.50;4167527;28;20299;-49
2023/01/08 09:40:58;;;;;;;0.88;0.88;;;;;;;8.47;100.00;97651.34;4168327;28;20689;-49